Time;durP1;ratioP1;P1;durP2;ratioP2;P2;SDS_P1;SDS_P2;PMS_P1;PMS_P2;Temp;Humidity;BMP_temperature;BMP_pressure;BME280_temperature;BME280_humidity;BME280_pressure;Samples;Min_cycle;Max_cycle;Signal;HPM_P1;HPM_P2
2022/10/09 00:01:44;;;;;;;13.62;8.85;;;;;;;12.24;100.00;99217.53;4485812;31;20509;-75
2022/10/09 00:04:12;;;;;;;15.13;8.82;;;;;;;12.18;100.00;99223.31;4485605;31;20176;-75
2022/10/09 00:06:39;;;;;;;15.32;8.63;;;;;;;12.16;100.00;99222.66;4485684;31;20494;-75
2022/10/09 00:09:06;;;;;;;16.08;10.07;;;;;;;12.24;100.00;99220.16;4485460;31;20182;-75
2022/10/09 00:11:33;;;;;;;16.80;10.15;;;;;;;12.30;100.00;99224.03;4485756;31;20511;-75
2022/10/09 00:14:01;;;;;;;14.90;9.57;;;;;;;12.28;100.00;99217.25;4485632;31;20453;-75
2022/10/09 00:16:28;;;;;;;14.48;9.68;;;;;;;12.30;100.00;99217.97;4485571;31;20116;-75
2022/10/09 00:18:57;;;;;;;18.75;10.45;;;;;;;12.28;100.00;99219.88;4485465;32;20616;-75
2022/10/09 00:21:29;;;;;;;18.27;11.35;;;;;;;12.22;100.00;99208.97;4485360;31;20100;-75
2022/10/09 00:23:58;;;;;;;16.55;11.73;;;;;;;12.18;100.00;99210.19;4485717;31;20123;-75
2022/10/09 00:26:26;;;;;;;17.73;12.13;;;;;;;12.15;100.00;99212.28;4485552;32;20157;-75
2022/10/09 00:28:53;;;;;;;19.48;12.48;;;;;;;12.12;100.00;99204.66;4485530;31;20100;-75
2022/10/09 00:31:21;;;;;;;18.83;13.20;;;;;;;12.12;100.00;99196.78;4485499;32;20100;-75
2022/10/09 00:33:48;;;;;;;19.92;14.65;;;;;;;12.07;100.00;99192.78;4485515;32;20587;-75
2022/10/09 00:36:20;;;;;;;22.85;14.95;;;;;;;12.05;100.00;99197.34;4485770;31;20130;-75
2022/10/09 00:38:48;;;;;;;21.10;15.70;;;;;;;12.10;100.00;99196.94;4485854;31;20164;-75
2022/10/09 00:41:25;;;;;;;25.80;16.12;;;;;;;12.18;100.00;99199.69;4485437;31;20089;-75
2022/10/09 00:43:55;;;;;;;25.10;17.23;;;;;;;12.18;100.00;99194.44;4485543;31;20593;-75
2022/10/09 00:46:40;;;;;;;25.40;16.77;;;;;;;12.29;100.00;99187.41;4485307;31;20096;-75
2022/10/09 00:49:16;;;;;;;30.08;19.10;;;;;;;12.29;100.00;99184.78;4485307;31;20197;-75
2022/10/09 00:51:45;;;;;;;26.98;19.52;;;;;;;12.30;100.00;99181.19;4485361;31;20413;-75
2022/10/09 00:54:14;;;;;;;25.80;18.33;;;;;;;12.31;100.00;99182.81;4485268;31;20092;-75
2022/10/09 00:56:41;;;;;;;28.60;18.55;;;;;;;12.28;100.00;99185.72;4485410;31;20100;-75
2022/10/09 00:59:10;;;;;;;30.98;19.12;;;;;;;12.23;100.00;99176.50;4485314;31;20122;-75
2022/10/09 01:01:38;;;;;;;35.90;21.02;;;;;;;12.19;100.00;99174.28;4483979;32;20155;-75
2022/10/09 01:04:05;;;;;;;30.12;20.35;;;;;;;12.12;100.00;99173.97;4484066;32;20153;-75
2022/10/09 01:07:10;;;;;;;30.50;20.15;;;;;;;12.07;100.00;99171.75;4485183;31;20485;-75
2022/10/09 01:09:43;;;;;;;29.00;19.52;;;;;;;12.03;100.00;99174.78;4485291;32;20594;-75
2022/10/09 01:12:11;;;;;;;34.25;19.67;;;;;;;11.94;100.00;99171.19;4485381;31;20140;-75
2022/10/09 01:14:49;;;;;;;30.98;20.50;;;;;;;11.89;100.00;99171.56;4483898;32;20443;-75
2022/10/09 01:17:35;;;;;;;32.67;19.98;;;;;;;11.84;100.00;99181.66;4484979;31;20568;-75
2022/10/09 01:20:27;;;;;;;37.67;21.98;;;;;;;11.83;100.00;99174.72;4483793;32;20104;-75
2022/10/09 01:23:34;;;;;;;38.50;24.17;;;;;;;11.93;100.00;99177.41;4485142;32;20137;-75
2022/10/09 01:26:38;;;;;;;37.25;22.92;;;;;;;11.99;100.00;99163.75;4485031;32;20096;-75
2022/10/09 01:29:06;;;;;;;38.25;21.85;;;;;;;12.18;100.00;99165.53;4485273;31;20145;-75
2022/10/09 01:31:37;;;;;;;37.30;23.23;;;;;;;12.19;100.00;99174.28;4483708;32;20126;-75
2022/10/09 01:34:05;;;;;;;34.35;22.65;;;;;;;12.22;100.00;99169.56;4484257;32;20110;-75
2022/10/09 01:36:33;;;;;;;31.67;21.65;;;;;;;12.28;100.00;99169.97;4483775;32;20076;-75
2022/10/09 01:39:02;;;;;;;37.65;22.98;;;;;;;12.29;100.00;99172.47;4483896;32;20128;-75
2022/10/09 01:41:29;;;;;;;37.95;21.98;;;;;;;12.27;100.00;99176.22;4483944;32;20092;-75
2022/10/09 01:43:56;;;;;;;33.83;21.83;;;;;;;12.28;100.00;99175.22;4485087;31;20148;-75
2022/10/09 01:46:29;;;;;;;40.97;22.42;;;;;;;12.25;100.00;99174.53;4484885;32;20172;-75
2022/10/09 01:49:22;;;;;;;35.22;22.80;;;;;;;12.18;100.00;99176.06;4483686;32;20084;-75
2022/10/09 01:52:10;;;;;;;34.42;22.23;;;;;;;12.19;100.00;99166.41;4484940;32;20115;-75
2022/10/09 01:54:40;;;;;;;35.97;24.37;;;;;;;12.15;100.00;99168.44;4484827;31;20493;-75
2022/10/09 01:57:09;;;;;;;34.90;22.52;;;;;;;12.18;100.00;99178.69;4484780;31;20527;-75
2022/10/09 01:59:38;;;;;;;35.28;23.33;;;;;;;12.19;100.00;99185.59;4483790;32;20148;-75
2022/10/09 02:02:06;;;;;;;35.85;24.42;;;;;;;12.22;100.00;99182.69;4483719;32;20111;-75
2022/10/09 02:04:36;;;;;;;37.97;23.70;;;;;;;12.20;100.00;99184.66;4483489;32;20187;-75
2022/10/09 02:07:03;;;;;;;41.05;24.08;;;;;;;12.20;100.00;99178.53;4484394;31;20168;-74
2022/10/09 02:09:31;;;;;;;40.00;23.62;;;;;;;12.19;100.00;99185.59;4483735;32;20127;-74
2022/10/09 02:12:03;;;;;;;38.40;23.73;;;;;;;12.24;100.00;99186.00;4483344;32;20146;-74
2022/10/09 02:14:30;;;;;;;38.75;24.92;;;;;;;12.31;100.00;99185.44;4483420;32;20102;-75
2022/10/09 02:17:04;;;;;;;44.63;26.02;;;;;;;12.34;100.00;99193.06;4483945;32;20122;-75
2022/10/09 02:19:44;;;;;;;45.53;26.50;;;;;;;12.40;100.00;99192.53;4483245;32;20121;-75
2022/10/09 02:22:16;;;;;;;42.85;24.15;;;;;;;12.39;100.00;99201.37;4484570;31;20163;-75
2022/10/09 02:24:44;;;;;;;45.50;26.20;;;;;;;12.38;100.00;99200.56;4483218;32;20168;-75
2022/10/09 02:27:12;;;;;;;45.08;26.50;;;;;;;12.41;100.00;99199.44;4483070;32;20144;-74
2022/10/09 02:29:40;;;;;;;36.90;24.20;;;;;;;12.41;100.00;99202.91;4483217;32;20113;-75
2022/10/09 02:32:09;;;;;;;43.15;25.05;;;;;;;12.51;100.00;99202.06;4484380;31;20160;-75
2022/10/09 02:34:36;;;;;;;42.75;26.12;;;;;;;12.45;100.00;99200.00;4483204;32;20118;-75
2022/10/09 02:37:03;;;;;;;46.83;26.05;;;;;;;12.41;100.00;99204.69;4484340;31;20148;-74
2022/10/09 02:39:30;;;;;;;48.00;27.65;;;;;;;12.38;100.00;99213.69;4484242;31;20115;-74
2022/10/09 02:41:57;;;;;;;43.22;25.35;;;;;;;12.35;100.00;99203.44;4484287;31;20410;-74
2022/10/09 02:44:24;;;;;;;47.83;26.35;;;;;;;12.33;100.00;99217.69;4484150;31;20153;-74
2022/10/09 02:46:52;;;;;;;42.28;26.37;;;;;;;12.36;100.00;99206.91;4484023;31;20446;-75
2022/10/09 02:49:19;;;;;;;49.67;27.77;;;;;;;12.33;100.00;99217.69;4484191;31;20505;-74
2022/10/09 02:51:46;;;;;;;43.00;27.02;;;;;;;12.29;100.00;99219.75;4483904;31;20126;-74
2022/10/09 02:54:14;;;;;;;44.40;26.30;;;;;;;12.24;100.00;99220.16;4484094;31;20116;-74
2022/10/09 02:56:41;;;;;;;46.50;27.00;;;;;;;12.20;100.00;99228.44;4484198;31;20168;-74
2022/10/09 02:59:08;;;;;;;52.05;28.50;;;;;;;12.19;100.00;99226.81;4484058;31;20141;-75
2022/10/09 03:01:35;;;;;;;50.40;29.08;;;;;;;12.05;100.00;99226.22;4484082;31;20143;-74
2022/10/09 03:04:03;;;;;;;51.88;30.45;;;;;;;11.97;100.00;99228.69;4484110;31;20093;-75
2022/10/09 03:06:30;;;;;;;45.60;27.77;;;;;;;11.86;100.00;99237.47;4483800;31;20614;-75
2022/10/09 03:08:57;;;;;;;42.10;25.98;;;;;;;11.85;100.00;99233.19;4483932;31;20120;-75
2022/10/09 03:11:25;;;;;;;49.17;28.33;;;;;;;11.85;100.00;99233.19;4483783;32;20179;-74
2022/10/09 03:13:53;;;;;;;44.88;27.67;;;;;;;11.84;100.00;99235.94;4483940;32;20562;-75
2022/10/09 03:16:22;;;;;;;49.03;27.52;;;;;;;11.77;100.00;99235.66;4482449;32;20108;-75
2022/10/09 03:18:51;;;;;;;51.92;27.73;;;;;;;11.71;100.00;99230.94;4483870;31;20434;-75
2022/10/09 03:21:20;;;;;;;50.25;28.98;;;;;;;11.71;100.00;99228.31;4483977;31;20160;-74
2022/10/09 03:23:48;;;;;;;50.65;26.98;;;;;;;11.77;100.00;99226.94;4483621;31;20160;-74
2022/10/09 03:26:19;;;;;;;57.53;31.67;;;;;;;11.78;100.00;99224.19;4483669;31;20116;-74
2022/10/09 03:28:47;;;;;;;52.28;27.98;;;;;;;11.84;100.00;99228.91;4485529;31;20096;-74
2022/10/09 03:31:16;;;;;;;49.83;29.45;;;;;;;11.87;100.00;99223.37;4485927;32;20179;-74
2022/10/09 03:34:03;;;;;;;52.15;29.92;;;;;;;11.97;100.00;99222.59;4486015;31;20080;-75
2022/10/09 03:36:31;;;;;;;55.47;30.17;;;;;;;11.99;100.00;99225.91;4485812;32;20109;-74
2022/10/09 03:38:58;;;;;;;50.90;30.23;;;;;;;12.00;100.00;99232.84;4485933;31;20139;-75
2022/10/09 03:41:25;;;;;;;56.63;29.75;;;;;;;12.04;100.00;99231.63;4485933;31;20179;-75
2022/10/09 03:43:52;;;;;;;59.05;30.17;;;;;;;12.04;100.00;99229.00;4485954;31;20183;-75
2022/10/09 03:46:19;;;;;;;51.42;27.25;;;;;;;12.06;100.00;99229.66;4485676;31;20181;-75
2022/10/09 03:48:46;;;;;;;50.90;28.45;;;;;;;12.07;100.00;99242.66;4485666;32;20089;-75
2022/10/09 03:51:14;;;;;;;51.15;29.40;;;;;;;12.05;100.00;99246.37;4485985;31;20139;-75
2022/10/09 03:53:41;;;;;;;55.85;30.50;;;;;;;12.03;100.00;99253.56;4485794;31;20522;-75
2022/10/09 03:56:08;;;;;;;57.22;28.83;;;;;;;12.04;100.00;99255.25;4486080;31;20114;-74
2022/10/09 03:58:35;;;;;;;55.60;31.20;;;;;;;12.06;100.00;99248.88;4485663;32;20096;-75
2022/10/09 04:01:02;;;;;;;53.60;29.60;;;;;;;12.09;100.00;99260.91;4485901;31;20184;-75
2022/10/09 04:03:30;;;;;;;47.75;28.27;;;;;;;12.07;100.00;99263.69;4485796;32;20131;-74
2022/10/09 04:05:57;;;;;;;56.65;28.77;;;;;;;12.10;100.00;99251.22;4485834;31;20098;-75
2022/10/09 04:08:24;;;;;;;52.45;29.80;;;;;;;12.12;100.00;99254.56;4485591;31;20104;-74
2022/10/09 04:10:58;;;;;;;45.67;26.33;;;;;;;12.12;100.00;99255.38;4485790;32;20165;-75
2022/10/09 04:13:25;;;;;;;55.35;29.48;;;;;;;12.11;100.00;99255.53;4485668;31;20441;-75
2022/10/09 04:15:53;;;;;;;49.95;28.65;;;;;;;12.10;100.00;99259.97;4485705;31;20521;-74
2022/10/09 04:18:21;;;;;;;53.35;27.92;;;;;;;12.07;100.00;99257.59;4485639;31;20173;-75
2022/10/09 04:20:50;;;;;;;53.17;28.80;;;;;;;12.06;100.00;99254.13;4485699;31;20135;-75
2022/10/09 04:23:18;;;;;;;44.08;25.48;;;;;;;12.07;100.00;99247.09;4485668;31;20112;-75
2022/10/09 04:25:45;;;;;;;53.97;28.60;;;;;;;12.06;100.00;99242.81;4485614;31;20100;-75
2022/10/09 04:28:12;;;;;;;46.30;26.08;;;;;;;12.07;100.00;99255.78;4485782;31;20816;-75
2022/10/09 04:30:40;;;;;;;49.65;28.05;;;;;;;12.11;100.00;99269.47;4485699;32;20457;-74
2022/10/09 04:33:07;;;;;;;49.10;27.20;;;;;;;12.14;100.00;99260.50;4485729;31;20393;-74
2022/10/09 04:35:43;;;;;;;50.50;28.00;;;;;;;12.13;100.00;99279.88;4485489;31;20139;-74
2022/10/09 04:38:10;;;;;;;54.03;27.80;;;;;;;12.06;100.00;99280.38;4485164;31;20148;-75
2022/10/09 04:40:37;;;;;;;56.50;28.55;;;;;;;12.05;100.00;99285.78;4485623;31;20118;-74
2022/10/09 04:43:04;;;;;;;54.17;27.15;;;;;;;12.01;100.00;99279.16;4485568;31;20092;-74
2022/10/09 04:45:32;;;;;;;49.25;27.87;;;;;;;11.97;100.00;99296.94;4485662;32;20131;-74
2022/10/09 04:47:59;;;;;;;47.78;26.75;;;;;;;11.89;100.00;99297.59;4485197;31;20154;-75
2022/10/09 04:50:26;;;;;;;53.40;29.27;;;;;;;11.83;100.00;99306.00;4485563;31;20164;-75
2022/10/09 04:52:56;;;;;;;51.75;28.73;;;;;;;11.72;100.00;99313.97;4485446;32;20092;-74
2022/10/09 04:55:23;;;;;;;58.47;29.20;;;;;;;11.65;100.00;99315.44;4485478;31;20140;-74
2022/10/09 04:57:50;;;;;;;54.40;30.05;;;;;;;11.60;100.00;99313.22;4485317;31;20470;-74
2022/10/09 05:00:18;;;;;;;51.63;28.12;;;;;;;11.65;100.00;99312.81;4485724;32;20122;-75
2022/10/09 05:02:45;;;;;;;55.20;28.60;;;;;;;11.64;100.00;99319.03;4485172;31;20505;-75
2022/10/09 05:05:13;;;;;;;58.33;29.63;;;;;;;11.66;100.00;99317.94;4485418;31;20170;-74
2022/10/09 05:07:40;;;;;;;55.88;28.83;;;;;;;11.66;100.00;99317.13;4484840;31;20168;-74
2022/10/09 05:10:07;;;;;;;54.13;28.42;;;;;;;11.67;100.00;99316.13;4485619;32;20487;-75
2022/10/09 05:12:34;;;;;;;55.05;28.17;;;;;;;11.72;100.00;99320.03;4485025;31;20191;-74
2022/10/09 05:15:01;;;;;;;56.80;29.12;;;;;;;11.76;100.00;99325.03;4485373;32;20115;-74
2022/10/09 05:17:28;;;;;;;54.22;27.40;;;;;;;11.77;100.00;99326.69;4485093;31;20111;-75
2022/10/09 05:19:56;;;;;;;58.30;29.77;;;;;;;11.75;100.00;99318.94;4485000;32;20122;-74
2022/10/09 05:22:23;;;;;;;49.97;26.62;;;;;;;11.76;100.00;99325.03;4485082;32;20147;-74
2022/10/09 05:24:50;;;;;;;50.88;27.23;;;;;;;11.76;100.00;99317.97;4485192;31;20498;-75
2022/10/09 05:27:17;;;;;;;52.60;27.77;;;;;;;11.78;100.00;99323.94;4485000;32;20120;-74
2022/10/09 05:29:44;;;;;;;52.03;25.77;;;;;;;11.83;100.00;99324.38;4485037;31;20175;-74
2022/10/09 05:32:12;;;;;;;59.85;28.95;;;;;;;11.83;100.00;99328.78;4485047;31;20187;-75
2022/10/09 05:34:39;;;;;;;49.97;26.75;;;;;;;11.81;100.00;99334.19;4485100;31;20126;-74
2022/10/09 05:37:06;;;;;;;47.58;25.23;;;;;;;11.83;100.00;99332.25;4485224;31;20120;-75
2022/10/09 05:39:34;;;;;;;48.80;25.62;;;;;;;11.85;100.00;99343.47;4485054;31;20430;-75
2022/10/09 05:42:01;;;;;;;48.33;26.00;;;;;;;11.87;100.00;99349.41;4484951;31;20474;-74
2022/10/09 05:44:29;;;;;;;48.42;26.75;;;;;;;11.87;100.00;99344.16;4485254;31;20096;-75
2022/10/09 05:46:56;;;;;;;51.72;25.90;;;;;;;11.86;100.00;99352.97;4484906;31;20114;-75
2022/10/09 05:49:23;;;;;;;47.80;24.45;;;;;;;11.85;100.00;99351.34;4484583;31;20131;-75
2022/10/09 05:51:50;;;;;;;55.30;26.85;;;;;;;11.87;100.00;99352.03;4482812;32;20111;-75
2022/10/09 05:54:17;;;;;;;52.00;26.65;;;;;;;11.93;100.00;99357.72;4484973;31;20089;-75
2022/10/09 05:56:44;;;;;;;49.70;26.73;;;;;;;11.90;100.00;99354.38;4484964;31;20109;-74
2022/10/09 05:59:14;;;;;;;51.97;26.08;;;;;;;11.93;100.00;99355.09;4484835;31;20095;-75
2022/10/09 06:01:43;;;;;;;44.88;25.15;;;;;;;11.90;100.00;99367.50;4485001;31;20148;-75
2022/10/09 06:04:14;;;;;;;47.13;25.33;;;;;;;11.88;100.00;99381.72;4484901;31;20101;-75
2022/10/09 06:06:42;;;;;;;50.90;26.25;;;;;;;11.94;100.00;99364.66;4482561;31;75074;-75
2022/10/09 06:09:10;;;;;;;47.40;25.45;;;;;;;11.84;100.00;99375.91;4484484;31;20100;-75
2022/10/09 06:11:38;;;;;;;44.30;24.30;;;;;;;11.82;100.00;99372.56;4485164;31;20114;-75
2022/10/09 06:14:08;;;;;;;46.30;27.02;;;;;;;11.77;100.00;99377.38;4484829;31;20089;-75
2022/10/09 06:16:40;;;;;;;47.75;26.23;;;;;;;11.78;100.00;99381.69;4484513;31;20915;-74
2022/10/09 06:19:11;;;;;;;50.88;26.12;;;;;;;11.72;100.00;99383.03;4484407;31;20109;-75
2022/10/09 06:21:38;;;;;;;51.35;26.35;;;;;;;11.76;100.00;99390.66;4484600;31;20118;-75
2022/10/09 06:24:06;;;;;;;43.45;25.75;;;;;;;11.68;100.00;99397.38;4484476;31;20167;-75
2022/10/09 06:26:33;;;;;;;45.55;25.75;;;;;;;11.74;100.00;99398.66;4483547;32;20609;-74
2022/10/09 06:29:01;;;;;;;45.03;24.98;;;;;;;11.84;100.00;99401.31;4484363;31;20093;-75
2022/10/09 06:31:31;;;;;;;49.47;26.58;;;;;;;11.88;100.00;99395.72;4484564;31;20100;-75
2022/10/09 06:33:59;;;;;;;47.75;25.85;;;;;;;12.02;100.00;99404.22;4484402;31;20137;-75
2022/10/09 06:36:29;;;;;;;50.45;26.35;;;;;;;12.15;100.00;99404.00;4484524;31;20089;-75
2022/10/09 06:38:58;;;;;;;45.03;25.70;;;;;;;12.24;100.00;99404.03;4484136;31;20177;-75
2022/10/09 06:41:27;;;;;;;42.20;23.75;;;;;;;12.34;100.00;99409.34;4484289;31;20116;-75
2022/10/09 06:43:59;;;;;;;38.78;23.02;;;;;;;12.43;100.00;99397.22;4484247;31;20157;-74
2022/10/09 06:46:38;;;;;;;42.25;24.75;;;;;;;12.43;100.00;99407.72;4484107;31;20153;-75
2022/10/09 06:49:06;;;;;;;42.75;23.30;;;;;;;12.53;100.00;99413.81;4484163;31;20180;-75
2022/10/09 06:51:34;;;;;;;40.90;23.60;;;;;;;12.67;100.00;99414.41;4484072;31;20176;-75
2022/10/09 06:54:03;;;;;;;41.25;23.58;;;;;;;12.74;100.00;99413.75;4484098;31;20088;-74
2022/10/09 06:56:31;;;;;;;35.40;21.08;;;;;;;12.70;100.00;99419.41;4484147;31;20153;-75
2022/10/09 06:58:59;;;;;;;34.38;19.50;;;;;;;12.77;100.00;99415.28;4484229;31;20119;-75
2022/10/09 07:01:31;;;;;;;32.72;18.52;;;;;;;12.72;100.00;99428.00;4483386;32;20552;-75
2022/10/09 07:04:05;;;;;;;26.02;16.90;;;;;;;12.79;100.00;99423.84;4485910;31;20085;-74
2022/10/09 07:06:36;;;;;;;30.50;18.17;;;;;;;12.91;100.00;99422.78;4485944;31;20495;-75
2022/10/09 07:09:05;;;;;;;32.00;19.58;;;;;;;13.03;100.00;99423.47;4485893;31;20167;-75
2022/10/09 07:11:38;;;;;;;30.83;18.60;;;;;;;13.09;100.00;99430.00;4486250;31;20163;-74
2022/10/09 07:14:07;;;;;;;28.90;17.42;;;;;;;13.07;100.00;99438.03;4485935;31;20167;-75
2022/10/09 07:16:36;;;;;;;27.62;16.58;;;;;;;13.13;100.00;99432.22;4484613;32;20104;-75
2022/10/09 07:19:06;;;;;;;28.85;15.65;;;;;;;13.22;100.00;99435.81;4485789;31;20450;-75
2022/10/09 07:21:34;;;;;;;28.62;16.10;;;;;;;13.36;100.00;99439.88;4485914;32;20615;-75
2022/10/09 07:24:02;;;;;;;23.70;14.65;;;;;;;13.51;100.00;99435.03;4486032;31;20080;-75
2022/10/09 07:26:31;;;;;;;26.65;14.65;;;;;;;13.63;100.00;99444.44;4485934;31;20096;-74
2022/10/09 07:28:59;;;;;;;25.23;16.42;;;;;;;13.81;100.00;99441.09;4486060;31;20143;-74
2022/10/09 07:31:26;;;;;;;26.62;16.73;;;;;;;13.91;100.00;99436.63;4486113;31;20092;-75
2022/10/09 07:33:55;;;;;;;26.17;16.87;;;;;;;13.99;100.00;99442.03;4486127;31;20115;-75
2022/10/09 07:36:23;;;;;;;25.15;16.52;;;;;;;14.01;100.00;99447.16;4485990;31;20189;-75
2022/10/09 07:38:52;;;;;;;31.83;18.45;;;;;;;14.09;100.00;99449.06;4485752;31;20104;-75
2022/10/09 07:41:20;;;;;;;29.37;18.50;;;;;;;14.08;100.00;99455.31;4485911;31;20174;-74
2022/10/09 07:43:47;;;;;;;30.90;15.13;;;;;;;14.02;100.00;99449.66;4485817;31;20120;-75
2022/10/09 07:46:16;;;;;;;26.33;16.52;;;;;;;14.12;100.00;99454.88;4485633;31;20100;-75
2022/10/09 07:48:44;;;;;;;24.40;15.20;;;;;;;14.25;100.00;99459.84;4485768;32;20410;-75
2022/10/09 07:51:17;;;;;;;27.05;16.17;;;;;;;14.17;100.00;99460.56;4485763;31;20502;-75
2022/10/09 07:53:45;;;;;;;27.13;16.17;;;;;;;14.23;100.00;99467.06;4486016;31;20076;-75
2022/10/09 07:56:16;;;;;;;24.27;15.10;;;;;;;14.35;100.00;99459.78;4485581;31;20100;-75
2022/10/09 07:58:51;;;;;;;29.37;16.48;;;;;;;14.43;100.00;99456.44;4485644;31;20076;-75
2022/10/09 08:01:20;;;;;;;27.48;15.30;;;;;;;14.40;100.00;99457.56;4485978;31;20110;-75
2022/10/09 08:03:48;;;;;;;25.95;14.87;;;;;;;14.43;100.00;99456.44;4485868;31;20096;-75
2022/10/09 08:06:16;;;;;;;28.30;15.90;;;;;;;14.48;100.00;99455.03;4485748;31;20108;-75
2022/10/09 08:08:43;;;;;;;21.40;13.85;;;;;;;14.44;100.00;99458.91;4485672;31;20088;-75
2022/10/09 08:11:13;;;;;;;24.92;14.87;;;;;;;14.41;100.00;99458.41;4485940;31;20118;-75
2022/10/09 08:13:41;;;;;;;22.58;15.05;;;;;;;14.45;100.00;99460.59;4485169;31;20179;-75
2022/10/09 08:16:08;;;;;;;26.17;15.00;;;;;;;14.53;100.00;99467.78;4485543;31;20104;-75
2022/10/09 08:18:35;;;;;;;19.52;12.07;;;;;;;14.47;100.00;99461.28;4485724;32;20139;-75
2022/10/09 08:21:13;;;;;;;20.80;13.35;;;;;;;14.49;100.00;99456.69;4485214;31;20437;-75
2022/10/09 08:23:41;;;;;;;22.50;13.45;;;;;;;14.65;100.00;99458.72;4485584;31;20167;-75
2022/10/09 08:26:17;;;;;;;21.98;13.65;;;;;;;14.80;100.00;99458.25;4485637;31;20097;-75
2022/10/09 08:28:56;;;;;;;21.30;12.95;;;;;;;14.86;100.00;99455.03;4485727;31;20142;-75
2022/10/09 08:31:23;;;;;;;17.65;11.90;;;;;;;15.04;100.00;99450.59;4485501;31;20143;-75
2022/10/09 08:33:55;;;;;;;16.92;11.12;;;;;;;14.95;100.00;99462.03;4485765;31;20160;-75
2022/10/09 08:36:22;;;;;;;18.08;11.90;;;;;;;15.02;100.00;99459.66;4485455;31;20111;-75
2022/10/09 08:38:50;;;;;;;18.65;11.10;;;;;;;15.05;100.00;99462.81;4485519;31;20105;-75
2022/10/09 08:41:32;;;;;;;19.00;12.00;;;;;;;15.19;100.00;99463.28;4485711;31;20160;-75
2022/10/09 08:44:12;;;;;;;17.48;10.73;;;;;;;15.36;100.00;99459.81;4485664;31;20092;-75
2022/10/09 08:47:09;;;;;;;17.62;11.30;;;;;;;15.47;100.00;99460.56;4485219;31;20092;-74
2022/10/09 08:49:36;;;;;;;17.20;10.95;;;;;;;15.25;100.00;99462.69;4485277;31;20145;-75
2022/10/09 08:52:20;;;;;;;20.90;11.05;;;;;;;15.29;100.00;99461.41;4485283;31;20084;-75
2022/10/09 08:54:48;;;;;;;19.02;10.45;;;;;;;15.37;100.00;99471.22;4485593;31;20465;-75
2022/10/09 08:57:16;;;;;;;18.83;10.65;;;;;;;15.39;100.00;99464.78;4485419;31;20116;-75
2022/10/09 08:59:43;;;;;;;15.07;9.30;;;;;;;15.55;100.00;99472.03;4484260;32;20117;-75
2022/10/09 09:02:36;;;;;;;17.55;8.90;;;;;;;15.73;100.00;99474.66;4484256;32;20114;-75
2022/10/09 09:05:52;;;;;;;21.02;10.32;;;;;;;15.67;100.00;99477.94;4484144;32;20103;-75
2022/10/09 09:08:30;;;;;;;18.33;9.85;;;;;;;15.60;100.00;99472.41;4420568;32;20117;-75
2022/10/09 09:11:16;;;;;;;14.35;8.85;;;;;;;15.88;100.00;99475.00;4420634;32;20120;-75
2022/10/09 09:14:20;;;;;;;14.13;8.50;;;;;;;16.11;100.00;99482.41;4420774;32;20189;-75
2022/10/09 09:16:53;;;;;;;15.35;8.98;;;;;;;16.10;94.74;99484.22;4360098;32;20103;-75
2022/10/09 09:19:32;;;;;;;16.48;9.43;;;;;;;16.07;97.46;99495.09;4360465;32;20110;-75
2022/10/09 09:22:00;;;;;;;11.12;8.15;;;;;;;16.25;97.75;99491.59;4360267;32;20280;-75
2022/10/09 09:24:34;;;;;;;15.73;8.25;;;;;;;16.29;96.23;99495.56;4347511;32;20172;-75
2022/10/09 09:27:12;;;;;;;10.13;7.35;;;;;;;16.45;93.71;99493.00;4359921;32;20091;-75
2022/10/09 09:29:44;;;;;;;16.15;8.80;;;;;;;16.64;93.41;99507.00;4348014;32;20119;-75
2022/10/09 09:32:21;;;;;;;10.60;6.50;;;;;;;16.62;91.15;99504.53;4360264;32;20523;-75
2022/10/09 09:34:52;;;;;;;13.23;7.40;;;;;;;16.78;89.51;99501.09;4360549;32;20449;-75
2022/10/09 09:37:20;;;;;;;12.80;7.43;;;;;;;16.87;88.60;99502.00;4348049;32;20116;-75
2022/10/09 09:39:47;;;;;;;12.43;8.35;;;;;;;16.85;90.60;99514.50;4360094;32;20145;-75
2022/10/09 09:42:34;;;;;;;11.27;7.70;;;;;;;16.81;91.81;99507.91;4377275;32;20245;-75
2022/10/09 09:45:04;;;;;;;10.40;7.00;;;;;;;16.81;90.93;99511.38;4377802;32;20415;-75
2022/10/09 09:47:39;;;;;;;11.55;6.12;;;;;;;16.93;85.00;99508.47;4377394;32;20316;-75
2022/10/09 09:50:10;;;;;;;9.90;6.60;;;;;;;17.14;84.13;99514.16;4390222;32;20129;-75
2022/10/09 09:53:00;;;;;;;13.15;6.82;;;;;;;17.23;83.91;99511.53;4392961;32;20152;-75
2022/10/09 09:55:30;;;;;;;10.27;7.00;;;;;;;17.38;85.15;99507.25;4469422;32;20560;-75
2022/10/09 09:58:06;;;;;;;11.43;6.35;;;;;;;17.40;85.68;99510.59;4469202;32;20089;-75
2022/10/09 10:00:34;;;;;;;11.88;7.80;;;;;;;17.25;83.43;99510.38;4468014;32;20198;-75
2022/10/09 10:03:15;;;;;;;11.30;7.12;;;;;;;16.98;88.89;99508.81;4469137;32;20124;-75
2022/10/09 10:05:43;;;;;;;11.10;7.12;;;;;;;17.10;88.16;99507.53;4469269;32;20111;-75
2022/10/09 10:08:21;;;;;;;10.35;6.40;;;;;;;17.22;85.67;99518.66;4480219;32;20139;-74
2022/10/09 10:10:50;;;;;;;9.45;6.28;;;;;;;17.32;84.76;99506.09;4484964;31;20084;-75
2022/10/09 10:13:20;;;;;;;10.65;6.25;;;;;;;17.43;84.52;99515.56;4484747;31;20418;-75
2022/10/09 10:15:53;;;;;;;10.55;5.57;;;;;;;17.39;83.82;99519.50;4484705;31;20164;-75
2022/10/09 10:18:23;;;;;;;11.48;5.47;;;;;;;17.46;84.92;99512.59;4484581;31;20439;-75
2022/10/09 10:20:54;;;;;;;8.85;6.37;;;;;;;17.58;81.11;99509.59;4483398;32;20372;-75
2022/10/09 10:23:32;;;;;;;9.95;5.32;;;;;;;17.50;79.45;99511.28;4484606;31;20187;-75
2022/10/09 10:26:05;;;;;;;9.20;5.30;;;;;;;17.66;83.07;99514.94;4483465;32;20596;-75
2022/10/09 10:28:40;;;;;;;9.57;5.50;;;;;;;17.79;80.67;99512.63;4483466;32;20160;-75
2022/10/09 10:31:13;;;;;;;11.68;5.25;;;;;;;17.88;79.76;99506.31;4483279;32;20479;-75
2022/10/09 10:33:41;;;;;;;9.23;5.30;;;;;;;17.74;78.35;99514.91;4484349;32;20084;-75
2022/10/09 10:36:09;;;;;;;9.27;5.12;;;;;;;18.03;79.00;99509.16;4483452;32;20180;-74
2022/10/09 10:38:54;;;;;;;7.18;5.00;;;;;;;18.46;78.33;99511.56;4485392;32;20096;-75
2022/10/09 10:41:31;;;;;;;8.55;5.12;;;;;;;18.48;76.66;99509.56;4485151;32;20520;-75
2022/10/09 10:44:07;;;;;;;8.68;5.18;;;;;;;18.19;72.67;99518.91;4486262;31;20163;-75
2022/10/09 10:46:43;;;;;;;6.62;5.07;;;;;;;18.17;75.06;99517.41;4485141;32;20126;-75
2022/10/09 10:49:10;;;;;;;7.05;4.90;;;;;;;17.82;77.92;99512.28;4485180;32;20085;-75
2022/10/09 10:51:43;;;;;;;8.38;4.65;;;;;;;17.68;78.11;99515.56;4486214;31;20097;-75
2022/10/09 10:54:26;;;;;;;7.50;4.55;;;;;;;17.72;76.60;99507.13;4486212;31;20147;-75
2022/10/09 10:57:04;;;;;;;8.20;3.92;;;;;;;17.90;74.50;99506.19;4486476;31;20087;-75
2022/10/09 10:59:38;;;;;;;7.82;4.37;;;;;;;18.01;73.87;99510.31;4484939;32;20080;-75
2022/10/09 11:02:08;;;;;;;9.25;6.28;;;;;;;18.25;73.48;99512.13;4486217;31;20108;-75
2022/10/09 11:04:45;;;;;;;8.20;4.10;;;;;;;18.23;72.37;99499.03;4486256;31;20159;-75
2022/10/09 11:07:15;;;;;;;6.45;4.10;;;;;;;18.54;73.11;99503.56;4486125;31;20135;-75
2022/10/09 11:10:10;;;;;;;6.53;4.30;;;;;;;18.67;71.34;99499.53;4486066;31;20157;-75
2022/10/09 11:12:51;;;;;;;4.62;3.70;;;;;;;18.72;68.25;99499.88;4486328;31;20532;-75
2022/10/09 11:15:33;;;;;;;6.43;3.45;;;;;;;18.79;70.72;99503.50;4484865;32;20153;-75
2022/10/09 11:18:15;;;;;;;4.15;3.72;;;;;;;18.97;69.44;99506.78;4486014;31;20081;-75
2022/10/09 11:21:18;;;;;;;7.60;3.75;;;;;;;18.94;68.36;99495.66;4486124;31;20089;-75
2022/10/09 11:24:10;;;;;;;6.10;3.67;;;;;;;19.08;67.13;99508.22;4485933;31;20128;-75
2022/10/09 11:27:49;;;;;;;7.35;3.80;;;;;;;19.12;67.10;99503.34;4485942;31;20126;-75
2022/10/09 11:30:17;;;;;;;10.90;3.90;;;;;;;19.12;65.33;99498.91;4331400;33;20167;-75
2022/10/09 11:32:44;;;;;;;5.87;3.90;;;;;;;19.26;64.07;99483.22;4319323;33;20174;-75
2022/10/09 11:35:11;;;;;;;7.05;4.07;;;;;;;19.10;65.16;99492.09;4331561;33;20426;-75